Time;durP1;ratioP1;P1;durP2;ratioP2;P2;SDS_P1;SDS_P2;PMS_P1;PMS_P2;Temp;Humidity;BMP_temperature;BMP_pressure;BME280_temperature;BME280_humidity;BME280_pressure;Samples;Min_cycle;Max_cycle;Signal;HPM_P1;HPM_P2
2021/07/29 00:00:30;;;;;;;6.63;4.23;;;15.50;93.20;;;;;;5112618;28;20134;-65
2021/07/29 00:02:56;;;;;;;8.87;4.33;;;15.50;93.10;;;;;;5112452;28;20051;-65
2021/07/29 00:05:22;;;;;;;6.77;4.57;;;15.50;93.10;;;;;;5111822;28;20427;-66
2021/07/29 00:07:51;;;;;;;9.13;4.87;;;15.50;93.10;;;;;;5111928;28;20072;-66
2021/07/29 00:10:17;;;;;;;8.57;5.17;;;15.50;93.10;;;;;;5112307;28;20530;-66
2021/07/29 00:12:42;;;;;;;8.80;4.83;;;15.40;93.10;;;;;;5111608;28;20044;-65
2021/07/29 00:15:12;;;;;;;6.00;4.33;;;15.40;93.10;;;;;;5112197;28;20533;-66
2021/07/29 00:20:17;;;;;;;8.13;4.63;;;15.40;93.10;;;;;;5112281;28;20179;-66
2021/07/29 00:22:43;;;;;;;;;;;15.40;93.10;;;;;;5112611;28;20058;-66
2021/07/29 00:25:12;;;;;;;7.47;4.03;;;15.40;93.10;;;;;;5111302;28;19920;-66
2021/07/29 00:27:45;;;;;;;7.60;3.83;;;15.40;93.10;;;;;;5112033;28;20125;-66
2021/07/29 00:30:12;;;;;;;5.80;3.80;;;15.40;93.00;;;;;;5112070;28;20543;-66
2021/07/29 00:32:39;;;;;;;7.00;4.47;;;15.40;93.00;;;;;;5111367;28;20134;-66
2021/07/29 00:35:08;;;;;;;6.03;4.17;;;15.40;92.90;;;;;;5112147;28;20054;-66
2021/07/29 00:37:34;;;;;;;8.90;4.43;;;15.30;92.90;;;;;;5111987;28;20058;-66
2021/07/29 00:40:01;;;;;;;6.67;3.70;;;15.30;92.90;;;;;;5111135;28;20051;-66
2021/07/29 00:42:26;;;;;;;6.67;3.70;;;15.30;92.90;;;;;;5111946;28;20039;-66
2021/07/29 00:44:52;;;;;;;10.90;4.00;;;15.30;92.90;;;;;;5112248;28;20053;-66
2021/07/29 00:47:19;;;;;;;11.20;4.37;;;15.30;92.90;;;;;;5110923;28;20124;-66
2021/07/29 00:49:46;;;;;;;7.03;4.17;;;15.30;92.90;;;;;;5112248;28;20052;-66
2021/07/29 00:52:16;;;;;;;5.10;3.60;;;15.30;92.90;;;;;;5111562;28;20048;-66
2021/07/29 00:54:42;;;;;;;8.23;3.67;;;15.30;92.90;;;;;;5111276;28;20059;-66
2021/07/29 00:57:09;;;;;;;8.97;3.73;;;15.20;92.90;;;;;;5111608;28;20046;-65
2021/07/29 00:59:38;;;;;;;5.30;3.53;;;15.20;92.90;;;;;;5112015;28;20051;-66
2021/07/29 01:02:04;;;;;;;5.77;3.50;;;15.20;92.90;;;;;;5110792;28;20175;-66
2021/07/29 01:04:30;;;;;;;6.90;3.40;;;15.20;92.90;;;;;;5111996;28;20057;-67
2021/07/29 01:06:57;;;;;;;7.60;3.20;;;15.20;92.90;;;;;;5111081;28;20054;-66
2021/07/29 01:09:23;;;;;;;6.93;3.90;;;15.20;92.90;;;;;;5111910;28;20124;-66
2021/07/29 01:11:49;;;;;;;8.80;3.50;;;15.20;92.80;;;;;;5111722;28;20084;-65
2021/07/29 01:14:15;;;;;;;5.80;3.97;;;15.30;92.70;;;;;;5111076;28;20099;-66
2021/07/29 01:16:42;;;;;;;6.43;3.70;;;15.30;92.70;;;;;;5111169;28;20044;-66
2021/07/29 01:19:09;;;;;;;8.17;3.80;;;15.30;92.70;;;;;;5114273;28;20062;-66
2021/07/29 01:21:35;;;;;;;7.60;3.53;;;15.30;92.70;;;;;;5114747;28;20047;-66
2021/07/29 01:24:01;;;;;;;8.30;3.50;;;15.30;92.80;;;;;;5115116;28;20060;-66
2021/07/29 01:26:27;;;;;;;8.53;3.90;;;15.30;92.90;;;;;;5115496;28;20074;-66
2021/07/29 01:28:54;;;;;;;5.27;3.70;;;15.30;92.90;;;;;;5115029;28;20406;-65
2021/07/29 01:31:20;;;;;;;8.77;4.00;;;15.30;92.90;;;;;;5115016;28;20063;-66
2021/07/29 01:33:45;;;;;;;6.70;3.50;;;15.30;93.00;;;;;;5115477;28;20114;-66
2021/07/29 01:36:11;;;;;;;7.47;3.77;;;15.30;93.00;;;;;;5114131;28;20051;-66
2021/07/29 01:38:37;;;;;;;8.23;3.70;;;15.30;93.00;;;;;;5115531;28;20051;-66
2021/07/29 01:41:03;;;;;;;7.77;4.00;;;15.30;93.10;;;;;;5114920;28;20177;-66
2021/07/29 01:43:30;;;;;;;7.27;3.90;;;15.30;93.00;;;;;;5114564;28;20043;-65
2021/07/29 01:45:56;;;;;;;7.60;3.63;;;15.30;93.10;;;;;;5115079;28;20054;-66
2021/07/29 01:48:22;;;;;;;9.50;3.67;;;15.20;93.10;;;;;;5114809;28;20048;-66
2021/07/29 01:50:47;;;;;;;6.40;3.83;;;15.20;93.10;;;;;;5113979;28;20055;-66
2021/07/29 01:53:13;;;;;;;8.13;3.93;;;15.20;93.00;;;;;;5114924;28;20109;-67
2021/07/29 01:55:46;;;;;;;7.53;4.00;;;15.30;93.10;;;;;;5114826;28;20048;-66
2021/07/29 01:58:12;;;;;;;7.67;3.50;;;15.30;93.00;;;;;;5114052;28;20567;-65
2021/07/29 02:00:40;;;;;;;7.10;3.67;;;15.30;93.10;;;;;;5114977;28;20090;-66
2021/07/29 02:03:05;;;;;;;7.47;3.90;;;15.30;93.10;;;;;;5114474;28;20043;-66
2021/07/29 02:05:31;;;;;;;8.67;4.03;;;15.30;93.10;;;;;;5114191;28;20063;-66
2021/07/29 02:07:58;;;;;;;6.33;3.47;;;15.30;93.10;;;;;;5114712;28;20044;-66
2021/07/29 02:10:24;;;;;;;9.30;3.47;;;15.40;93.10;;;;;;5113950;28;20053;-66
2021/07/29 02:12:51;;;;;;;8.00;3.87;;;15.40;93.00;;;;;;5114660;28;20048;-66
2021/07/29 02:15:17;;;;;;;6.33;3.70;;;15.40;92.90;;;;;;5114576;28;20408;-66
2021/07/29 02:17:43;;;;;;;8.40;3.67;;;15.40;92.90;;;;;;5113590;28;20442;-66
2021/07/29 02:20:09;;;;;;;8.77;3.67;;;15.40;92.90;;;;;;5114177;28;20100;-66
2021/07/29 02:22:35;;;;;;;7.10;3.33;;;15.40;92.80;;;;;;5114447;28;20044;-66
2021/07/29 02:25:01;;;;;;;7.37;3.47;;;15.40;92.80;;;;;;5113482;28;20135;-66
2021/07/29 02:27:26;;;;;;;8.93;2.90;;;15.40;92.90;;;;;;5114208;28;20437;-66
2021/07/29 02:29:53;;;;;;;7.00;2.33;;;15.30;93.00;;;;;;5113967;28;20479;-66
2021/07/29 02:32:20;;;;;;;4.93;1.87;;;15.20;92.80;;;;;;5113169;28;20096;-67
2021/07/29 02:34:46;;;;;;;4.40;1.73;;;15.10;92.60;;;;;;5114356;28;20051;-67
2021/07/29 02:37:11;;;;;;;5.63;1.70;;;15.00;92.60;;;;;;5114051;28;20070;-66
2021/07/29 02:39:40;;;;;;;5.10;1.80;;;14.80;92.50;;;;;;5113395;28;20089;-66
2021/07/29 02:42:08;;;;;;;5.53;1.67;;;14.70;92.50;;;;;;5113871;28;20062;-66
2021/07/29 02:44:35;;;;;;;2.40;1.10;;;14.60;92.70;;;;;;5114192;28;20054;-67
2021/07/29 02:47:00;;;;;;;2.40;1.03;;;14.50;92.80;;;;;;5112798;28;20126;-67
2021/07/29 02:49:27;;;;;;;2.73;0.90;;;14.30;92.70;;;;;;5114365;28;20044;-66
2021/07/29 02:51:53;;;;;;;3.53;0.87;;;14.20;92.70;;;;;;5113852;28;20050;-66
2021/07/29 02:54:19;;;;;;;1.87;0.90;;;14.10;92.70;;;;;;5113227;28;20104;-66
2021/07/29 02:56:44;;;;;;;3.60;1.10;;;14.00;92.80;;;;;;5113681;28;20179;-66
2021/07/29 02:59:10;;;;;;;2.30;1.10;;;13.90;92.90;;;;;;5113644;28;20078;-66
2021/07/29 03:01:36;;;;;;;1.40;0.80;;;13.80;93.00;;;;;;5113484;28;20055;-66
2021/07/29 03:04:02;;;;;;;2.30;1.00;;;13.70;93.10;;;;;;5113489;28;20483;-66
2021/07/29 03:06:27;;;;;;;2.40;0.90;;;13.60;93.20;;;;;;5113378;28;20047;-66
2021/07/29 03:08:53;;;;;;;2.70;0.73;;;13.60;93.30;;;;;;5113305;28;20494;-66
2021/07/29 03:11:19;;;;;;;1.13;0.70;;;13.50;93.40;;;;;;5113212;28;20074;-66
2021/07/29 03:13:46;;;;;;;2.97;0.67;;;13.40;93.60;;;;;;5112923;28;20051;-67
2021/07/29 03:16:11;;;;;;;2.67;0.80;;;13.40;93.70;;;;;;5112955;28;20043;-67
2021/07/29 03:18:37;;;;;;;1.87;0.50;;;13.40;93.70;;;;;;5113434;28;20134;-67
2021/07/29 03:21:07;;;;;;;2.17;1.50;;;13.30;93.70;;;;;;5112294;28;20176;-66
2021/07/29 03:23:34;;;;;;;1.97;0.70;;;13.30;93.90;;;;;;5113315;28;20055;-67
2021/07/29 03:26:00;;;;;;;1.00;0.77;;;13.20;93.90;;;;;;5112822;28;20058;-67
2021/07/29 03:28:25;;;;;;;2.50;0.80;;;13.20;93.90;;;;;;5112565;28;20392;-66
2021/07/29 03:30:53;;;;;;;2.33;0.87;;;13.20;94.00;;;;;;5112865;28;20058;-67
2021/07/29 03:33:20;;;;;;;1.60;0.70;;;13.10;94.00;;;;;;5113180;28;20396;-67
2021/07/29 03:35:45;;;;;;;2.60;0.70;;;13.10;94.10;;;;;;5112369;28;20055;-66
2021/07/29 03:38:11;;;;;;;3.00;0.70;;;13.10;94.10;;;;;;5112909;28;20040;-66
2021/07/29 03:40:37;;;;;;;1.03;0.53;;;13.00;94.20;;;;;;5113109;28;20055;-66
2021/07/29 03:43:05;;;;;;;1.00;0.70;;;13.10;94.30;;;;;;5111087;28;20084;-65
2021/07/29 03:45:32;;;;;;;1.53;0.70;;;13.00;94.30;;;;;;5112971;28;20518;-67
2021/07/29 03:47:58;;;;;;;1.53;0.70;;;13.00;94.40;;;;;;5113068;28;20102;-66
2021/07/29 03:50:29;;;;;;;1.70;0.60;;;13.00;94.50;;;;;;5112428;28;20095;-67
2021/07/29 03:52:55;;;;;;;2.90;0.80;;;12.90;94.50;;;;;;5112857;28;20048;-67
2021/07/29 03:55:21;;;;;;;1.73;0.70;;;12.90;94.60;;;;;;5112531;28;20454;-67
2021/07/29 03:57:46;;;;;;;2.07;0.80;;;12.90;94.60;;;;;;5111831;28;20051;-67
2021/07/29 04:00:13;;;;;;;2.27;0.83;;;12.80;95.10;;;;;;5112785;28;20079;-67
2021/07/29 04:02:39;;;;;;;2.30;0.83;;;12.80;94.80;;;;;;5112687;28;20059;-66
2021/07/29 04:05:06;;;;;;;2.10;1.07;;;12.80;94.80;;;;;;5112063;28;20462;-67
2021/07/29 04:07:33;;;;;;;2.23;1.00;;;12.80;94.80;;;;;;5112765;28;20052;-67
2021/07/29 04:09:59;;;;;;;2.77;1.10;;;12.80;94.90;;;;;;5112196;28;20048;-67
2021/07/29 04:12:28;;;;;;;4.77;1.23;;;12.80;95.00;;;;;;5112356;28;20055;-67
2021/07/29 04:14:54;;;;;;;2.13;0.90;;;12.70;95.10;;;;;;5112918;28;20521;-67
2021/07/29 04:17:19;;;;;;;3.20;1.50;;;12.70;95.10;;;;;;5111483;28;20503;-66
2021/07/29 04:19:45;;;;;;;4.97;1.60;;;12.70;95.30;;;;;;5112620;28;20047;-67
2021/07/29 04:22:11;;;;;;;3.03;2.07;;;12.70;95.30;;;;;;5112054;28;20051;-66
2021/07/29 04:24:37;;;;;;;6.00;1.70;;;12.70;95.30;;;;;;5111620;28;20403;-66
2021/07/29 04:27:10;;;;;;;4.77;1.63;;;12.70;95.60;;;;;;5111878;28;20039;-66
2021/07/29 04:29:39;;;;;;;6.20;2.70;;;12.70;95.60;;;;;;5112631;28;20048;-66
2021/07/29 04:32:06;;;;;;;6.10;1.70;;;12.80;95.70;;;;;;5111186;28;20549;-67
2021/07/29 04:34:38;;;;;;;4.93;1.90;;;12.80;95.70;;;;;;5112523;28;20411;-67
2021/07/29 04:37:04;;;;;;;5.37;2.23;;;12.90;95.80;;;;;;5111859;28;20144;-67
2021/07/29 04:39:41;;;;;;;4.90;2.43;;;12.90;95.80;;;;;;5111583;28;20096;-66
2021/07/29 04:42:07;;;;;;;4.67;2.27;;;13.00;95.80;;;;;;5112117;28;20043;-67
2021/07/29 04:44:33;;;;;;;6.50;2.70;;;13.00;95.80;;;;;;5112441;28;20384;-66
2021/07/29 04:47:01;;;;;;;5.53;2.13;;;13.00;95.80;;;;;;5111092;28;20040;-66
2021/07/29 04:49:27;;;;;;;6.60;2.30;;;13.10;95.90;;;;;;5112450;28;20043;-66
2021/07/29 04:51:53;;;;;;;8.53;2.77;;;13.10;95.90;;;;;;5111946;28;20454;-66
2021/07/29 04:54:19;;;;;;;7.40;2.53;;;13.20;96.00;;;;;;5114593;28;20051;-66
2021/07/29 04:56:44;;;;;;;6.87;2.33;;;13.20;96.00;;;;;;5116430;28;20051;-67
2021/07/29 04:59:10;;;;;;;6.73;2.37;;;13.20;96.10;;;;;;5115507;28;20130;-66
2021/07/29 05:01:37;;;;;;;9.43;2.57;;;13.30;96.00;;;;;;5116597;28;20104;-66
2021/07/29 05:04:03;;;;;;;6.03;2.60;;;13.40;96.00;;;;;;5116313;28;20054;-66
2021/07/29 05:06:35;;;;;;;10.20;4.20;;;13.40;95.90;;;;;;5115667;28;20063;-66
2021/07/29 05:09:01;;;;;;;8.20;2.80;;;13.50;95.90;;;;;;5116543;28;20067;-67
2021/07/29 05:11:29;;;;;;;5.37;2.27;;;13.50;95.90;;;;;;5116373;28;20040;-66
2021/07/29 05:13:54;;;;;;;6.83;2.90;;;13.60;95.90;;;;;;5115461;28;20112;-66
2021/07/29 05:16:20;;;;;;;7.20;2.97;;;13.60;95.90;;;;;;5115565;28;20039;-65
2021/07/29 05:18:46;;;;;;;8.30;2.60;;;13.70;95.90;;;;;;5115818;28;20051;-65
2021/07/29 05:21:12;;;;;;;9.60;2.83;;;13.70;95.90;;;;;;5114423;28;20051;-65
2021/07/29 05:23:37;;;;;;;8.50;3.03;;;13.70;95.80;;;;;;5115511;28;20043;-66
2021/07/29 05:26:03;;;;;;;8.80;3.47;;;13.80;95.80;;;;;;5115054;28;20063;-65
2021/07/29 05:28:29;;;;;;;7.03;2.70;;;13.90;95.90;;;;;;5115005;28;20376;-65
2021/07/29 05:30:55;;;;;;;11.50;3.57;;;13.90;95.90;;;;;;5115043;28;20046;-65
2021/07/29 05:33:23;;;;;;;10.13;3.23;;;14.00;95.90;;;;;;5114272;28;20047;-66
2021/07/29 05:35:49;;;;;;;11.97;3.60;;;14.10;95.80;;;;;;5113612;28;20046;-65
2021/07/29 05:38:14;;;;;;;8.87;2.97;;;14.30;95.70;;;;;;5114195;28;20047;-65
2021/07/29 05:40:42;;;;;;;5.63;2.80;;;14.50;95.30;;;;;;5114325;28;20206;-66
2021/07/29 05:43:08;;;;;;;12.37;3.10;;;14.70;94.70;;;;;;5113696;28;20146;-66
2021/07/29 05:45:33;;;;;;;9.13;3.20;;;14.80;94.60;;;;;;5114233;28;20046;-66
2021/07/29 05:47:59;;;;;;;9.20;2.90;;;14.70;94.50;;;;;;5114450;28;20384;-66
2021/07/29 05:50:30;;;;;;;6.00;2.80;;;14.70;94.60;;;;;;5113318;28;20043;-66
2021/07/29 05:53:00;;;;;;;12.07;2.73;;;14.70;94.50;;;;;;5113377;28;20052;-66
2021/07/29 05:55:25;;;;;;;10.40;3.10;;;14.70;94.60;;;;;;5112072;28;20039;-65
2021/07/29 05:57:51;;;;;;;7.57;2.70;;;14.70;95.30;;;;;;5114496;28;20055;-65
2021/07/29 06:00:17;;;;;;;6.20;2.47;;;14.90;94.90;;;;;;5113659;28;20054;-66
2021/07/29 06:02:43;;;;;;;8.80;2.83;;;15.10;94.30;;;;;;5113454;28;20050;-65
2021/07/29 06:05:09;;;;;;;13.00;2.57;;;15.10;93.90;;;;;;5112621;28;20047;-66
2021/07/29 06:07:34;;;;;;;8.23;2.37;;;15.10;93.90;;;;;;5114210;28;20462;-65
2021/07/29 06:10:00;;;;;;;8.77;2.70;;;15.10;94.00;;;;;;5112799;28;20131;-66
2021/07/29 06:12:27;;;;;;;7.63;2.53;;;15.10;93.90;;;;;;5114402;28;20135;-66
2021/07/29 06:14:56;;;;;;;14.97;3.00;;;15.10;93.90;;;;;;5113409;28;20441;-66
2021/07/29 06:17:27;;;;;;;6.80;2.47;;;15.10;93.70;;;;;;5112754;28;20043;-65
2021/07/29 06:19:53;;;;;;;;;;;15.20;93.80;;;;;;5113831;28;20075;-65
2021/07/29 06:22:19;;;;;;;10.23;3.20;;;15.20;93.20;;;;;;5113676;28;19959;-66
2021/07/29 06:24:44;;;;;;;6.30;2.20;;;15.30;93.50;;;;;;5111085;28;20055;-65
2021/07/29 06:27:10;;;;;;;8.53;2.60;;;15.30;93.40;;;;;;5113572;28;20127;-65
2021/07/29 06:29:36;;;;;;;8.27;2.40;;;15.30;93.30;;;;;;5113830;28;20048;-66
2021/07/29 06:32:02;;;;;;;9.67;2.27;;;15.30;93.20;;;;;;5112627;28;20131;-66
2021/07/29 06:34:28;;;;;;;8.40;2.10;;;15.30;92.90;;;;;;5113865;28;20047;-65
2021/07/29 06:36:54;;;;;;;8.37;2.10;;;15.30;92.70;;;;;;5113211;28;20047;-66
2021/07/29 06:39:21;;;;;;;8.93;2.17;;;15.40;92.70;;;;;;5112430;28;20075;-66
2021/07/29 06:41:47;;;;;;;11.77;2.77;;;15.40;92.60;;;;;;5113345;28;20074;-67
2021/07/29 06:44:15;;;;;;;7.27;2.07;;;15.40;92.40;;;;;;5112987;28;20050;-67
2021/07/29 06:46:43;;;;;;;9.60;2.70;;;15.50;92.50;;;;;;5112594;28;20066;-67
2021/07/29 06:49:09;;;;;;;8.03;2.00;;;15.50;92.60;;;;;;5113116;28;20547;-64
2021/07/29 06:51:35;;;;;;;8.53;2.40;;;15.60;92.70;;;;;;5112433;28;20468;-65
2021/07/29 06:54:04;;;;;;;6.27;1.97;;;15.60;92.60;;;;;;5113101;28;20104;-65
2021/07/29 06:56:30;;;;;;;11.27;2.03;;;15.70;92.60;;;;;;5113267;28;20118;-65
2021/07/29 06:58:56;;;;;;;12.00;2.77;;;15.70;92.10;;;;;;5112470;28;20051;-65
2021/07/29 07:01:22;;;;;;;8.50;2.00;;;15.80;92.20;;;;;;5112197;28;20055;-65
2021/07/29 07:03:48;;;;;;;13.40;2.20;;;15.80;92.30;;;;;;5112979;28;20082;-66
2021/07/29 07:06:13;;;;;;;10.33;2.57;;;15.90;92.30;;;;;;5111636;28;20043;-65
2021/07/29 07:08:39;;;;;;;10.43;2.83;;;15.90;92.20;;;;;;5112943;28;20051;-65
2021/07/29 07:11:06;;;;;;;6.53;1.97;;;16.00;92.20;;;;;;5112109;28;20510;-65
2021/07/29 07:13:32;;;;;;;13.23;3.40;;;16.10;92.00;;;;;;5111747;28;20058;-65
2021/07/29 07:15:58;;;;;;;10.70;2.30;;;16.10;91.70;;;;;;5112568;28;20048;-65
2021/07/29 07:18:23;;;;;;;11.40;2.47;;;16.20;91.70;;;;;;5112180;28;20047;-64
2021/07/29 07:20:49;;;;;;;9.43;2.30;;;16.30;91.50;;;;;;5111576;28;20134;-65
2021/07/29 07:23:15;;;;;;;6.63;2.30;;;16.40;91.70;;;;;;5111855;28;20381;-66
2021/07/29 07:25:40;;;;;;;9.43;2.27;;;16.50;91.20;;;;;;5112010;28;20047;-64
2021/07/29 07:28:06;;;;;;;11.40;2.60;;;16.60;90.90;;;;;;5111209;28;20042;-65
2021/07/29 07:30:32;;;;;;;9.37;2.70;;;16.60;90.70;;;;;;5111914;28;20152;-65
2021/07/29 07:32:58;;;;;;;10.20;2.63;;;16.60;90.90;;;;;;5112295;28;20039;-65
2021/07/29 07:35:24;;;;;;;13.00;2.93;;;16.70;91.10;;;;;;5111256;28;20039;-65
2021/07/29 07:37:52;;;;;;;10.47;2.30;;;16.80;90.90;;;;;;5112017;28;20402;-65
2021/07/29 07:40:17;;;;;;;12.33;2.57;;;16.80;90.60;;;;;;5110504;28;20488;-65
2021/07/29 07:42:43;;;;;;;10.83;2.50;;;16.80;90.60;;;;;;5111815;28;20047;-64
2021/07/29 07:45:09;;;;;;;9.57;2.50;;;16.80;90.90;;;;;;5111779;28;20047;-65
2021/07/29 07:47:35;;;;;;;12.13;2.47;;;16.80;90.30;;;;;;5112747;28;20050;-65
2021/07/29 07:50:02;;;;;;;11.60;2.90;;;16.80;90.10;;;;;;5111071;28;20129;-65
2021/07/29 07:52:28;;;;;;;9.50;2.57;;;16.80;90.00;;;;;;5112501;28;20047;-64
2021/07/29 07:54:54;;;;;;;7.83;2.37;;;16.80;90.20;;;;;;5111934;28;20044;-66
2021/07/29 07:57:20;;;;;;;15.33;3.20;;;16.70;90.40;;;;;;5112477;28;20067;-66
2021/07/29 07:59:45;;;;;;;8.67;2.73;;;16.50;90.50;;;;;;5112539;28;20108;-65
2021/07/29 08:02:11;;;;;;;11.27;3.23;;;16.40;91.00;;;;;;5111929;28;20956;-65
2021/07/29 08:04:37;;;;;;;10.60;2.87;;;16.30;91.40;;;;;;5112709;28;20063;-66
2021/07/29 08:07:02;;;;;;;11.53;3.40;;;16.10;91.70;;;;;;5111833;28;20414;-65
2021/07/29 08:09:28;;;;;;;9.10;2.97;;;16.00;92.10;;;;;;5112354;28;20108;-66
2021/07/29 08:11:54;;;;;;;11.10;2.90;;;16.00;92.30;;;;;;5112085;28;20055;-66
2021/07/29 08:14:19;;;;;;;11.33;2.70;;;16.00;92.50;;;;;;5112789;28;20090;-66
2021/07/29 08:16:45;;;;;;;11.30;3.10;;;16.00;92.60;;;;;;5111824;28;20051;-66
2021/07/29 08:19:10;;;;;;;8.97;2.60;;;16.10;92.50;;;;;;5112302;28;20047;-66
2021/07/29 08:21:36;;;;;;;8.00;2.27;;;16.20;92.20;;;;;;5112236;28;20051;-66
2021/07/29 08:24:03;;;;;;;7.80;2.50;;;16.40;91.90;;;;;;5111555;28;20059;-66
2021/07/29 08:26:28;;;;;;;7.73;2.30;;;16.60;91.50;;;;;;5112018;28;20441;-66
2021/07/29 08:28:54;;;;;;;9.43;2.20;;;16.80;90.90;;;;;;5112042;28;20051;-66
2021/07/29 08:31:21;;;;;;;9.53;2.27;;;17.00;90.20;;;;;;5111044;28;20100;-66
2021/07/29 08:33:47;;;;;;;10.43;2.33;;;17.10;90.10;;;;;;5112244;28;20059;-66
2021/07/29 08:36:13;;;;;;;10.47;3.17;;;17.30;89.80;;;;;;5111617;28;20044;-66
2021/07/29 08:38:39;;;;;;;8.33;2.10;;;17.40;90.00;;;;;;5111506;28;20130;-66
2021/07/29 08:41:05;;;;;;;8.87;2.17;;;17.60;89.20;;;;;;5111726;28;20075;-65
2021/07/29 08:43:33;;;;;;;12.93;2.33;;;17.70;88.40;;;;;;5112292;28;20484;-66
2021/07/29 08:45:59;;;;;;;8.73;3.33;;;17.80;87.70;;;;;;5111624;28;20062;-65
2021/07/29 08:48:28;;;;;;;8.63;2.47;;;17.90;86.90;;;;;;5112102;28;20047;-65
2021/07/29 08:50:55;;;;;;;8.73;2.53;;;18.10;86.60;;;;;;5112108;28;20461;-67
2021/07/29 08:53:21;;;;;;;7.53;2.27;;;18.10;84.40;;;;;;5111328;28;20051;-66
2021/07/29 08:55:52;;;;;;;8.27;2.13;;;18.00;82.60;;;;;;5111868;28;20051;-65
2021/07/29 08:58:18;;;;;;;8.90;2.80;;;17.90;81.90;;;;;;5110690;28;20112;-65
2021/07/29 09:01:05;;;;;;;7.33;1.90;;;17.80;81.20;;;;;;5111791;28;20055;-65
2021/07/29 09:03:31;;;;;;;8.47;2.20;;;17.80;80.90;;;;;;5111250;28;20138;-66
2021/07/29 09:06:07;;;;;;;10.30;2.30;;;17.80;81.40;;;;;;5110779;28;20043;-66
2021/07/29 09:08:53;;;;;;;9.90;2.57;;;17.70;80.20;;;;;;5110514;28;20053;-66
2021/07/29 09:11:25;;;;;;;6.20;1.80;;;17.70;80.40;;;;;;5110151;28;20051;-66
2021/07/29 09:14:02;;;;;;;8.73;2.33;;;17.70;79.90;;;;;;5109205;28;20408;-66
2021/07/29 09:16:27;;;;;;;8.27;2.33;;;17.60;79.60;;;;;;5110240;28;20146;-65
2021/07/29 09:18:53;;;;;;;5.87;2.10;;;17.70;79.60;;;;;;5110555;28;20048;-65
2021/07/29 09:21:18;;;;;;;7.83;2.07;;;17.70;79.70;;;;;;5109888;28;20051;-66
2021/07/29 09:23:44;;;;;;;10.97;2.30;;;17.80;79.60;;;;;;5110912;28;20424;-66
2021/07/29 09:26:09;;;;;;;8.50;2.10;;;17.90;78.90;;;;;;5111559;28;20112;-66
2021/07/29 09:28:36;;;;;;;7.97;2.77;;;17.90;78.20;;;;;;5110874;28;20097;-65
2021/07/29 09:31:22;;;;;;;5.83;2.40;;;17.80;78.50;;;;;;5111488;28;20062;-66
2021/07/29 09:34:02;;;;;;;7.97;2.20;;;17.80;78.10;;;;;;5111004;28;20043;-65
2021/07/29 09:36:31;;;;;;;8.03;2.43;;;17.80;78.50;;;;;;5111763;28;20055;-66
2021/07/29 09:39:18;;;;;;;9.60;2.73;;;17.70;78.40;;;;;;5111506;28;20043;-65
2021/07/29 09:41:47;;;;;;;6.63;2.53;;;17.70;76.30;;;;;;5114201;28;20488;-66
2021/07/29 09:44:14;;;;;;;7.33;2.07;;;17.60;77.50;;;;;;5114999;28;20047;-65
2021/07/29 09:46:40;;;;;;;9.77;2.80;;;17.50;77.50;;;;;;5115179;28;20054;-67
2021/07/29 09:49:07;;;;;;;9.03;3.03;;;17.50;78.60;;;;;;5114661;28;20050;-66
2021/07/29 09:51:34;;;;;;;9.23;3.20;;;17.40;80.30;;;;;;5115352;28;20063;-66
2021/07/29 09:54:02;;;;;;;10.27;3.03;;;17.10;81.80;;;;;;5114641;28;20404;-66
2021/07/29 09:56:28;;;;;;;12.37;3.73;;;16.90;83.80;;;;;;5114567;28;20483;-66
2021/07/29 09:58:53;;;;;;;9.40;3.13;;;16.80;85.50;;;;;;5115172;28;20047;-65
2021/07/29 10:01:20;;;;;;;12.20;3.23;;;16.70;86.70;;;;;;5114493;28;20392;-66
2021/07/29 10:03:48;;;;;;;7.07;2.57;;;16.60;87.70;;;;;;5114162;28;20044;-66
2021/07/29 10:06:17;;;;;;;9.57;2.57;;;16.70;88.10;;;;;;5114719;28;20056;-66
2021/07/29 10:09:03;;;;;;;10.67;2.80;;;16.80;87.30;;;;;;5114310;28;20456;-67
2021/07/29 10:11:34;;;;;;;8.17;2.77;;;16.90;85.90;;;;;;5114834;28;20048;-68
2021/07/29 10:14:00;;;;;;;8.55;2.92;;;16.90;85.60;;;;;;5113824;28;20428;-67
2021/07/29 10:16:47;;;;;;;8.63;2.70;;;16.90;85.90;;;;;;5113871;28;20074;-67
2021/07/29 10:19:17;;;;;;;11.63;3.10;;;17.10;86.30;;;;;;5114084;28;20067;-66
2021/07/29 10:21:44;;;;;;;7.50;2.37;;;17.30;85.80;;;;;;5114546;28;20070;-67
2021/07/29 10:24:10;;;;;;;6.40;2.30;;;17.50;84.70;;;;;;5113189;28;20058;-67
2021/07/29 10:27:01;;;;;;;6.63;2.10;;;17.70;83.40;;;;;;5114447;28;20126;-66
2021/07/29 10:29:30;;;;;;;7.63;2.67;;;17.80;82.00;;;;;;5114004;28;20044;-66
2021/07/29 10:31:57;;;;;;;9.87;2.13;;;17.90;81.80;;;;;;5113783;28;20112;-67
2021/07/29 10:34:33;;;;;;;8.67;2.30;;;18.00;81.00;;;;;;5113900;28;20048;-67
2021/07/29 10:37:09;;;;;;;7.40;1.83;;;17.90;80.80;;;;;;5113471;28;20051;-66
2021/07/29 10:40:00;;;;;;;6.37;1.80;;;17.90;79.60;;;;;;5113500;28;20071;-66
2021/07/29 10:42:26;;;;;;;7.50;1.93;;;17.90;79.40;;;;;;5112700;28;20078;-66
2021/07/29 10:44:52;;;;;;;6.63;1.53;;;18.00;79.90;;;;;;5112078;28;20305;-66
2021/07/29 10:47:38;;;;;;;7.30;2.10;;;18.10;79.10;;;;;;5111878;28;20040;-66
2021/07/29 10:50:09;;;;;;;5.70;1.77;;;18.40;78.90;;;;;;5112451;28;20063;-66
2021/07/29 10:52:35;;;;;;;8.00;1.90;;;18.60;78.10;;;;;;5111377;28;20048;-68
2021/07/29 10:55:02;;;;;;;6.80;1.87;;;18.70;76.90;;;;;;5112234;28;20048;-66
2021/07/29 10:57:29;;;;;;;9.67;1.93;;;18.70;76.80;;;;;;5113929;28;20052;-66
2021/07/29 10:59:57;;;;;;;8.93;2.20;;;18.60;76.40;;;;;;5113256;28;20043;-66
2021/07/29 11:02:37;;;;;;;11.73;2.47;;;18.50;76.20;;;;;;5113464;28;20048;-66
2021/07/29 11:05:06;;;;;;;8.00;1.70;;;18.60;75.30;;;;;;5112793;28;20055;-65
2021/07/29 11:07:32;;;;;;;6.63;1.50;;;18.60;74.80;;;;;;5113702;28;20054;-66
2021/07/29 11:10:04;;;;;;;6.13;1.70;;;18.80;74.80;;;;;;5113351;28;20051;-66
2021/07/29 11:12:30;;;;;;;7.63;2.00;;;19.00;74.60;;;;;;5112750;28;20149;-66
2021/07/29 11:14:58;;;;;;;6.53;2.10;;;19.40;72.30;;;;;;5113289;28;20051;-65
2021/07/29 11:17:25;;;;;;;4.17;1.60;;;19.60;72.40;;;;;;5113186;28;20051;-66
2021/07/29 11:19:50;;;;;;;7.47;1.77;;;19.90;72.50;;;;;;5112719;28;20055;-66
2021/07/29 11:22:16;;;;;;;10.07;2.10;;;20.00;70.20;;;;;;5113214;28;20043;-66
2021/07/29 11:24:42;;;;;;;7.13;1.87;;;20.10;68.80;;;;;;5112835;28;20134;-66
2021/07/29 11:27:13;;;;;;;5.73;1.90;;;20.10;68.30;;;;;;5112010;28;20047;-66
2021/07/29 11:29:56;;;;;;;9.30;1.65;;;20.10;68.30;;;;;;5112869;28;20047;-66
2021/07/29 11:32:22;;;;;;;8.47;1.80;;;20.10;66.90;;;;;;5113035;28;20400;-67
2021/07/29 11:34:56;;;;;;;6.37;1.80;;;20.00;69.00;;;;;;5112350;28;20100;-66
2021/07/29 11:37:23;;;;;;;8.80;1.80;;;19.80;68.20;;;;;;5112876;28;20062;-66
2021/07/29 11:39:51;;;;;;;10.97;1.70;;;19.60;68.30;;;;;;5112992;28;20095;-66
2021/07/29 11:42:17;;;;;;;6.93;1.83;;;19.60;68.10;;;;;;5111620;28;20040;-66
2021/07/29 11:44:44;;;;;;;7.57;1.77;;;19.70;68.20;;;;;;5112400;28;20400;-66
2021/07/29 11:47:11;;;;;;;8.33;1.63;;;19.80;67.80;;;;;;5111921;28;20051;-66
2021/07/29 11:49:47;;;;;;;5.87;1.37;;;19.80;67.70;;;;;;5112465;27;20437;-66
2021/07/29 11:52:13;;;;;;;5.97;1.63;;;19.70;67.00;;;;;;5112588;28;20051;-66
2021/07/29 11:54:38;;;;;;;5.57;1.93;;;19.70;67.50;;;;;;5112176;28;20092;-66
2021/07/29 11:57:05;;;;;;;11.33;2.17;;;19.90;67.00;;;;;;5112188;28;20054;-66
2021/07/29 11:59:43;;;;;;;4.90;1.70;;;20.10;65.90;;;;;;5112784;28;20089;-66
2021/07/29 12:02:10;;;;;;;6.67;1.83;;;20.20;65.80;;;;;;5111169;28;20043;-66
2021/07/29 12:04:38;;;;;;;5.87;1.70;;;20.10;65.50;;;;;;5112115;28;20040;-66
2021/07/29 12:07:05;;;;;;;3.80;1.50;;;20.10;65.00;;;;;;5112108;28;20054;-66
2021/07/29 12:09:32;;;;;;;7.47;1.50;;;20.00;64.50;;;;;;5111575;28;20048;-66
2021/07/29 12:11:59;;;;;;;7.07;1.83;;;19.90;64.70;;;;;;5112264;28;20082;-66
2021/07/29 12:14:26;;;;;;;6.57;1.90;;;19.90;65.40;;;;;;5112006;28;20061;-66
2021/07/29 12:16:53;;;;;;;5.83;1.93;;;20.10;65.20;;;;;;5111506;28;20062;-66
2021/07/29 12:19:19;;;;;;;7.43;1.40;;;20.30;65.00;;;;;;5111963;28;20070;-68
2021/07/29 12:21:46;;;;;;;6.43;1.80;;;20.50;63.60;;;;;;5112127;27;20230;-68
2021/07/29 12:24:13;;;;;;;7.17;1.63;;;20.60;62.70;;;;;;5111019;28;20111;-66
2021/07/29 12:26:39;;;;;;;10.20;2.20;;;20.50;62.30;;;;;;5112662;28;20056;-66
2021/07/29 12:29:05;;;;;;;9.27;2.30;;;20.40;62.80;;;;;;5111825;28;20432;-66
2021/07/29 12:31:32;;;;;;;7.90;2.47;;;20.20;63.40;;;;;;5110925;28;20092;-66
2021/07/29 12:34:04;;;;;;;12.27;2.60;;;20.00;64.00;;;;;;5112208;28;20043;-66
2021/07/29 12:36:49;;;;;;;7.25;2.28;;;20.00;64.20;;;;;;5111282;28;20445;-66
2021/07/29 12:39:17;;;;;;;7.73;2.70;;;20.10;64.40;;;;;;5112053;28;20078;-66
2021/07/29 12:41:45;;;;;;;8.57;2.00;;;20.30;65.10;;;;;;5111725;28;20440;-66
2021/07/29 12:44:14;;;;;;;10.03;2.70;;;20.60;65.00;;;;;;5110956;28;20472;-66
2021/07/29 12:46:40;;;;;;;7.50;2.47;;;20.70;64.10;;;;;;5111831;28;20048;-66
2021/07/29 12:49:06;;;;;;;8.23;2.33;;;20.60;63.70;;;;;;5111245;28;20086;-66